UPS300 KSDF-KRFD
Flight info
| Callsign | UPS300 |
|---|---|
| Flight time | N/A |
| Altitude | 32000 |
| Route | DCT STREP V53 VHP V24 JELLS V399 JAKKS V24 EON V171 OCEDO V38 MEDAN V171 JOT DCT |
| Aircraft | B763/H-SDE3FGHIM3RWXY/LB1 |
Departure
| Time | N/A |
|---|---|
| Airport | Louisville Muhammad Ali International Airport (KSDF) |
Arrival
| Time | 2026-04-26 00:02 |
|---|---|
| Airport | Chicago Rockford International Airport (KRFD) |
| Time | Latitude | Longitude | Altitude | Speed | Heading |
|---|---|---|---|---|---|
| 2026-04-25 23:23 | 39.49997 | -86.29585 | 31944 ft | 479 kts | 348° |
| 2026-04-25 23:23 | 39.56628 | -86.31087 | 31952 ft | 479 kts | 348° |
| 2026-04-25 23:24 | 39.63222 | -86.32585 | 31948 ft | 479 kts | 348° |
| 2026-04-25 23:24 | 39.69751 | -86.34070 | 31953 ft | 479 kts | 348° |
| 2026-04-25 23:25 | 39.76283 | -86.35712 | 31955 ft | 477 kts | 341° |
| 2026-04-25 23:25 | 39.82241 | -86.39362 | 31963 ft | 471 kts | 323° |
| 2026-04-25 23:26 | 39.87134 | -86.45243 | 31971 ft | 469 kts | 312° |
| 2026-04-25 23:26 | 39.91809 | -86.51791 | 31966 ft | 469 kts | 311° |
| 2026-04-25 23:27 | 39.96382 | -86.58334 | 31959 ft | 468 kts | 311° |
| 2026-04-25 23:27 | 40.00938 | -86.64915 | 31963 ft | 469 kts | 311° |
| 2026-04-25 23:28 | 40.05360 | -86.71335 | 31963 ft | 469 kts | 310° |
| 2026-04-25 23:28 | 40.09714 | -86.77678 | 31971 ft | 469 kts | 310° |
| 2026-04-25 23:29 | 40.14058 | -86.84023 | 31972 ft | 469 kts | 310° |
| 2026-04-25 23:29 | 40.18383 | -86.90354 | 31976 ft | 469 kts | 310° |
| 2026-04-25 23:30 | 40.22728 | -86.96729 | 31979 ft | 469 kts | 310° |
| 2026-04-25 23:30 | 40.27028 | -87.03051 | 31976 ft | 468 kts | 310° |
| 2026-04-25 23:31 | 40.31352 | -87.09422 | 31979 ft | 469 kts | 310° |
| 2026-04-25 23:31 | 40.35957 | -87.15421 | 31982 ft | 470 kts | 322° |
| 2026-04-25 23:32 | 40.41612 | -87.19724 | 31980 ft | 473 kts | 330° |
| 2026-04-25 23:32 | 40.47539 | -87.23840 | 31978 ft | 473 kts | 330° |
| 2026-04-25 23:33 | 40.53502 | -87.27953 | 31975 ft | 473 kts | 330° |
| 2026-04-25 23:33 | 40.59448 | -87.32050 | 31980 ft | 472 kts | 330° |
| 2026-04-25 23:34 | 40.65425 | -87.36173 | 31982 ft | 472 kts | 330° |
| 2026-04-25 23:34 | 40.71259 | -87.40205 | 31983 ft | 472 kts | 330° |
| 2026-04-25 23:35 | 40.77142 | -87.44276 | 31988 ft | 472 kts | 330° |
| 2026-04-25 23:35 | 40.82985 | -87.48329 | 31997 ft | 473 kts | 330° |
| 2026-04-25 23:36 | 40.88879 | -87.52424 | 31998 ft | 472 kts | 330° |
| 2026-04-25 23:36 | 40.94718 | -87.56489 | 32006 ft | 472 kts | 330° |
| 2026-04-25 23:37 | 41.00557 | -87.60562 | 32019 ft | 473 kts | 330° |
| 2026-04-25 23:37 | 41.06390 | -87.64639 | 32020 ft | 473 kts | 330° |
| 2026-04-25 23:38 | 41.12198 | -87.68707 | 32034 ft | 472 kts | 330° |
| 2026-04-25 23:38 | 41.18022 | -87.72797 | 32031 ft | 471 kts | 329° |
| 2026-04-25 23:39 | 41.23200 | -87.77914 | 32042 ft | 469 kts | 312° |
| 2026-04-25 23:39 | 41.27089 | -87.84825 | 32045 ft | 468 kts | 304° |
| 2026-04-25 23:40 | 41.30945 | -87.91773 | 32037 ft | 468 kts | 306° |
| 2026-04-25 23:40 | 41.34901 | -87.98597 | 32038 ft | 468 kts | 307° |
| 2026-04-25 23:41 | 41.38926 | -88.05409 | 32046 ft | 468 kts | 307° |
| 2026-04-25 23:41 | 41.42957 | -88.12185 | 32049 ft | 468 kts | 307° |
| 2026-04-25 23:42 | 41.46987 | -88.18947 | 32042 ft | 468 kts | 307° |
| 2026-04-25 23:42 | 41.51017 | -88.25770 | 32050 ft | 468 kts | 306° |
| 2026-04-25 23:43 | 41.54971 | -88.32696 | 32047 ft | 468 kts | 307° |
| 2026-04-25 23:43 | 41.58895 | -88.39555 | 31997 ft | 462 kts | 307° |
| 2026-04-25 23:43 | 41.60843 | -88.42963 | 31480 ft | 462 kts | 307° |
| 2026-04-25 23:44 | 41.62785 | -88.46367 | 30689 ft | 457 kts | 308° |
| 2026-04-25 23:44 | 41.64977 | -88.49481 | 29873 ft | 453 kts | 317° |
| 2026-04-25 23:44 | 41.67294 | -88.52325 | 29091 ft | 452 kts | 317° |
| 2026-04-25 23:44 | 41.69670 | -88.55239 | 28275 ft | 451 kts | 317° |
| 2026-04-25 23:45 | 41.72023 | -88.58121 | 27470 ft | 450 kts | 317° |
| 2026-04-25 23:45 | 41.74446 | -88.61082 | 26644 ft | 448 kts | 317° |
| 2026-04-25 23:45 | 41.76778 | -88.63928 | 25839 ft | 446 kts | 317° |
| 2026-04-25 23:45 | 41.79134 | -88.66796 | 25026 ft | 445 kts | 316° |
| 2026-04-25 23:46 | 41.81515 | -88.69691 | 24010 ft | 446 kts | 316° |
| 2026-04-25 23:46 | 41.83865 | -88.72529 | 23059 ft | 446 kts | 316° |
| 2026-04-25 23:46 | 41.86139 | -88.75270 | 22131 ft | 446 kts | 316° |
| 2026-04-25 23:46 | 41.88464 | -88.78068 | 21199 ft | 445 kts | 316° |
| 2026-04-25 23:47 | 41.90821 | -88.80901 | 20263 ft | 444 kts | 316° |
| 2026-04-25 23:47 | 41.93290 | -88.83872 | 19165 ft | 445 kts | 314° |
| 2026-04-25 23:47 | 41.95296 | -88.87163 | 18099 ft | 441 kts | 298° |
| 2026-04-25 23:47 | 41.96431 | -88.90944 | 17103 ft | 435 kts | 281° |
| 2026-04-25 23:48 | 41.96909 | -88.94932 | 16117 ft | 432 kts | 276° |
| 2026-04-25 23:48 | 41.97357 | -88.98957 | 15177 ft | 428 kts | 277° |
| 2026-04-25 23:48 | 41.97798 | -89.02955 | 14411 ft | 421 kts | 277° |
| 2026-04-25 23:48 | 41.98229 | -89.06881 | 13645 ft | 414 kts | 277° |
| 2026-04-25 23:49 | 41.98646 | -89.10770 | 12881 ft | 407 kts | 277° |
| 2026-04-25 23:49 | 41.99054 | -89.14635 | 12112 ft | 401 kts | 277° |
| 2026-04-25 23:49 | 41.99443 | -89.18394 | 11355 ft | 396 kts | 277° |
| 2026-04-25 23:49 | 41.99824 | -89.22144 | 10601 ft | 390 kts | 277° |
| 2026-04-25 23:50 | 42.00185 | -89.25784 | 10038 ft | 381 kts | 277° |
| 2026-04-25 23:50 | 42.00518 | -89.29240 | 9990 ft | 358 kts | 275° |
| 2026-04-25 23:50 | 42.00411 | -89.32490 | 10016 ft | 335 kts | 255° |
| 2026-04-25 23:50 | 41.99560 | -89.35361 | 10008 ft | 315 kts | 245° |
| 2026-04-25 23:51 | 41.98660 | -89.38004 | 9973 ft | 300 kts | 245° |
| 2026-04-25 23:51 | 41.97776 | -89.40619 | 9219 ft | 312 kts | 245° |
| 2026-04-25 23:51 | 41.96835 | -89.43413 | 8217 ft | 329 kts | 245° |
| 2026-04-25 23:51 | 41.95839 | -89.46380 | 7202 ft | 343 kts | 245° |
| 2026-04-25 23:52 | 41.94923 | -89.49449 | 6188 ft | 354 kts | 255° |
| 2026-04-25 23:52 | 41.94723 | -89.52766 | 5208 ft | 361 kts | 277° |
| 2026-04-25 23:52 | 41.95439 | -89.56008 | 4237 ft | 363 kts | 300° |
| 2026-04-25 23:52 | 41.97010 | -89.58576 | 3966 ft | 340 kts | 324° |
| 2026-04-25 23:53 | 41.98994 | -89.59964 | 3969 ft | 311 kts | 348° |
| 2026-04-25 23:53 | 42.01045 | -89.60128 | 3972 ft | 285 kts | 14° |
| 2026-04-25 23:53 | 42.02811 | -89.59242 | 3965 ft | 262 kts | 40° |
| 2026-04-25 23:53 | 42.03827 | -89.57379 | 4009 ft | 240 kts | 69° |
| 2026-04-25 23:54 | 42.04401 | -89.55306 | 3977 ft | 228 kts | 69° |
| 2026-04-25 23:54 | 42.04980 | -89.53382 | 3980 ft | 215 kts | 68° |
| 2026-04-25 23:54 | 42.05530 | -89.51611 | 4040 ft | 196 kts | 68° |
| 2026-04-25 23:54 | 42.06044 | -89.49995 | 3974 ft | 175 kts | 68° |
| 2026-04-25 23:55 | 42.06507 | -89.48569 | 3966 ft | 163 kts | 68° |
| 2026-04-25 23:55 | 42.06976 | -89.47138 | 3993 ft | 169 kts | 67° |
| 2026-04-25 23:55 | 42.07458 | -89.45686 | 3984 ft | 171 kts | 67° |
| 2026-04-25 23:55 | 42.07946 | -89.44231 | 3990 ft | 169 kts | 67° |
| 2026-04-25 23:56 | 42.08426 | -89.42808 | 3979 ft | 168 kts | 66° |
| 2026-04-25 23:56 | 42.08916 | -89.41367 | 3988 ft | 169 kts | 66° |
| 2026-04-25 23:56 | 42.09407 | -89.39925 | 3988 ft | 169 kts | 66° |
| 2026-04-25 23:56 | 42.09900 | -89.38485 | 3984 ft | 168 kts | 66° |
| 2026-04-25 23:57 | 42.10390 | -89.37067 | 4006 ft | 169 kts | 66° |
| 2026-04-25 23:57 | 42.10883 | -89.35644 | 3999 ft | 166 kts | 66° |
| 2026-04-25 23:57 | 42.11367 | -89.34247 | 4015 ft | 165 kts | 66° |
| 2026-04-25 23:57 | 42.11858 | -89.32828 | 3994 ft | 165 kts | 66° |
| 2026-04-25 23:58 | 42.12343 | -89.31423 | 3809 ft | 167 kts | 66° |
| 2026-04-25 23:58 | 42.12829 | -89.30014 | 3612 ft | 165 kts | 66° |
| 2026-04-25 23:58 | 42.13312 | -89.28616 | 3401 ft | 163 kts | 66° |
| 2026-04-25 23:58 | 42.13785 | -89.27242 | 3188 ft | 161 kts | 66° |
| 2026-04-25 23:59 | 42.14247 | -89.25899 | 2973 ft | 159 kts | 66° |
| 2026-04-25 23:59 | 42.14712 | -89.24550 | 2765 ft | 157 kts | 65° |
| 2026-04-25 23:59 | 42.15167 | -89.23225 | 2550 ft | 156 kts | 65° |
| 2026-04-25 23:59 | 42.15622 | -89.21901 | 2341 ft | 155 kts | 65° |
| 2026-04-26 00:00 | 42.16073 | -89.20586 | 2152 ft | 150 kts | 65° |
| 2026-04-26 00:00 | 42.16495 | -89.19357 | 1964 ft | 138 kts | 65° |
| 2026-04-26 00:00 | 42.16910 | -89.18149 | 1779 ft | 145 kts | 65° |
| 2026-04-26 00:00 | 42.17340 | -89.16893 | 1581 ft | 151 kts | 65° |
| 2026-04-26 00:01 | 42.17783 | -89.15598 | 1378 ft | 156 kts | 65° |
| 2026-04-26 00:01 | 42.18240 | -89.14265 | 1160 ft | 156 kts | 65° |
| 2026-04-26 00:01 | 42.18695 | -89.12932 | 957 ft | 156 kts | 64° |
| 2026-04-26 00:01 | 42.19145 | -89.11619 | 771 ft | 155 kts | 64° |
| 2026-04-26 00:02 | 42.19547 | -89.10458 | 755 ft | 97 kts | 65° |
| 2026-04-26 00:02 | 42.19729 | -89.09927 | 755 ft | 43 kts | 65° |
| 2026-04-26 00:02 | 42.19850 | -89.09569 | 755 ft | 37 kts | 65° |
| 2026-04-26 00:02 | 42.19914 | -89.09410 | 755 ft | 15 kts | 30° |
| 2026-04-26 00:03 | 42.20000 | -89.09463 | 755 ft | 14 kts | 273° |
| 2026-04-26 00:03 | 42.19957 | -89.09603 | 755 ft | 17 kts | 249° |
| 2026-04-26 00:03 | 42.19907 | -89.09759 | 755 ft | 19 kts | 244° |
| 2026-04-26 00:03 | 42.19847 | -89.09929 | 755 ft | 21 kts | 248° |
| 2026-04-26 00:04 | 42.19785 | -89.10109 | 755 ft | 17 kts | 248° |
| 2026-04-26 00:04 | 42.19801 | -89.10220 | 755 ft | 12 kts | 313° |
| 2026-04-26 00:04 | 42.19820 | -89.10323 | 755 ft | 9 kts | 285° |
| 2026-04-26 00:04 | 42.19867 | -89.10372 | 755 ft | 8 kts | 340° |
| 2026-04-26 00:05 | 42.19903 | -89.10360 | 755 ft | 0 kts | 35° |